Wetterdaten: Woche 16.01.06 - 22.01.06 (KW3)
Datum Zeit Temperatur Luftfeuchte Luftdruck Niederschlag Wind Richtung Sonne Solar Taupunkt Windchill
16.01.2006 00:00 -7.5 C 80 % 1027.0 hPa 0.0 l/m 3.0 km/h (1 Bft) O-SO 0.00 h 0 W/m -10.4 C -8.8 C
16.01.2006 01:00 -7.5 C 80 % 1027.0 hPa 0.0 l/m 2.8 km/h (1 Bft) O-SO 0.00 h 0 W/m -10.4 C -8.4 C
16.01.2006 02:00 -7.5 C 79 % 1027.0 hPa 0.0 l/m 6.6 km/h (2 Bft) O-SO 0.00 h 0 W/m -10.4 C -10.4 C
16.01.2006 03:00 -7.4 C 79 % 1027.0 hPa 0.0 l/m 2.8 km/h (1 Bft) O-SO 0.00 h 0 W/m -10.4 C -8.4 C
16.01.2006 04:00 -7.5 C 78 % 1027.0 hPa 0.0 l/m 0.2 km/h (0 Bft) O-SO 0.00 h 0 W/m -10.6 C -7.5 C
16.01.2006 05:00 -7.5 C 77 % 1026.8 hPa 0.0 l/m 0.1 km/h (0 Bft) N 0.00 h 0 W/m -10.8 C -7.5 C
16.01.2006 06:00 -7.7 C 76 % 1026.7 hPa 0.0 l/m 3.9 km/h (1 Bft) O-SO 0.00 h 0 W/m -11.1 C -9.4 C
16.01.2006 07:00 -8.0 C 76 % 1027.1 hPa 0.0 l/m 1.2 km/h (1 Bft) O-SO 0.00 h 0 W/m -11.5 C -8.3 C
16.01.2006 08:00 -8.0 C 76 % 1027.1 hPa 0.0 l/m 2.0 km/h (1 Bft) NO 0.00 h 10 W/m -11.5 C -8.6 C
16.01.2006 09:00 -7.8 C 75 % 1027.1 hPa 0.0 l/m 3.2 km/h (1 Bft) O-SO 0.00 h 41 W/m -11.4 C -8.8 C
16.01.2006 10:00 -7.4 C 73 % 1027.0 hPa 0.0 l/m 0.6 km/h (0 Bft) O-SO 0.00 h 89 W/m -11.5 C -7.6 C
16.01.2006 11:00 -6.7 C 71 % 1026.2 hPa 0.0 l/m 0.3 km/h (0 Bft) O-SO 0.00 h 123 W/m -11.0 C -6.7 C
16.01.2006 12:00 -5.6 C 68 % 1025.7 hPa 0.0 l/m 1.8 km/h (1 Bft) W-NW 0.47 h 269 W/m -10.6 C -6.0 C
16.01.2006 13:00 -4.7 C 65 % 1024.5 hPa 0.0 l/m 0.5 km/h (0 Bft) W-NW 0.97 h 320 W/m -10.2 C -4.9 C
16.01.2006 14:00 -3.3 C 61 % 1023.8 hPa 0.0 l/m 1.3 km/h (1 Bft) O-SO 0.97 h 272 W/m -9.7 C -3.4 C
16.01.2006 15:00 -3.5 C 62 % 1023.4 hPa 0.0 l/m 0.2 km/h (0 Bft) O-SO 0.17 h 91 W/m -9.7 C -3.5 C
16.01.2006 16:00 -3.6 C 65 % 1023.3 hPa 0.0 l/m 0.0 km/h (0 Bft) N 0.00 h 24 W/m -9.1 C -3.6 C
16.01.2006 17:00 -3.9 C 69 % 1023.3 hPa 0.0 l/m 0.0 km/h (0 Bft) N 0.00 h 0 W/m -8.7 C -3.9 C
16.01.2006 18:00 -4.0 C 71 % 1023.4 hPa 0.0 l/m 0.0 km/h (0 Bft) N 0.00 h 0 W/m -8.6 C -4.0 C
16.01.2006 19:00 -4.0 C 71 % 1023.3 hPa 0.0 l/m 0.0 km/h (0 Bft) N 0.00 h 0 W/m -8.4 C -4.0 C
16.01.2006 20:00 -3.8 C 72 % 1022.6 hPa 0.0 l/m 0.0 km/h (0 Bft) N 0.00 h 0 W/m -8.0 C -3.8 C
16.01.2006 21:00 -3.7 C 73 % 1022.3 hPa 0.0 l/m 0.3 km/h (0 Bft) N-NO 0.00 h 0 W/m -7.8 C -3.7 C
16.01.2006 22:00 -3.8 C 77 % 1022.3 hPa 0.0 l/m 0.0 km/h (0 Bft) N 0.00 h 0 W/m -7.2 C -3.8 C
16.01.2006 23:00 -3.8 C 82 % 1022.3 hPa 0.3 l/m 0.0 km/h (0 Bft) N 0.00 h 0 W/m -6.5 C -3.8 C
17.01.2006 00:00 -3.8 C 84 % 1021.7 hPa 0.3 l/m 0.4 km/h (0 Bft) N-NO 0.00 h 0 W/m -6.1 C -3.8 C
17.01.2006 01:00 -3.7 C 84 % 1020.8 hPa 0.0 l/m 0.0 km/h (0 Bft) N 0.00 h 0 W/m -6.0 C -3.7 C
17.01.2006 02:00 -3.7 C 85 % 1020.2 hPa 0.3 l/m 0.0 km/h (0 Bft) N 0.00 h 0 W/m -5.8 C -3.7 C
17.01.2006 03:00 -3.6 C 86 % 1020.2 hPa 0.6 l/m 0.0 km/h (0 Bft) N 0.00 h 0 W/m -5.6 C -3.6 C
17.01.2006 04:00 -3.5 C 88 % 1019.7 hPa 0.6 l/m 0.0 km/h (0 Bft) N 0.00 h 0 W/m -5.2 C -3.5 C
17.01.2006 05:00 -3.4 C 88 % 1019.1 hPa 0.6 l/m 0.0 km/h (0 Bft) N 0.00 h 0 W/m -5.1 C -3.4 C
17.01.2006 06:00 -3.3 C 89 % 1018.7 hPa 1.0 l/m 0.0 km/h (0 Bft) N 0.00 h 0 W/m -4.8 C -3.3 C
17.01.2006 07:00 -3.2 C 89 % 1018.0 hPa 0.6 l/m 0.0 km/h (0 Bft) N 0.00 h 0 W/m -4.7 C -3.2 C
17.01.2006 08:00 -2.9 C 90 % 1018.0 hPa 0.6 l/m 0.0 km/h (0 Bft) N 0.00 h 9 W/m -4.4 C -2.9 C
17.01.2006 09:00 -2.3 C 90 % 1017.0 hPa 0.6 l/m 0.0 km/h (0 Bft) N 0.00 h 33 W/m -3.7 C -2.3 C
17.01.2006 10:00 -1.2 C 89 % 1016.4 hPa 1.3 l/m 0.0 km/h (0 Bft) N 0.00 h 76 W/m -2.7 C -1.2 C
17.01.2006 11:00 0.3 C 89 % 1015.4 hPa 0.0 l/m 0.1 km/h (0 Bft) N 0.00 h 119 W/m -1.3 C 0.3 C
17.01.2006 12:00 2.2 C 86 % 1014.1 hPa 0.0 l/m 1.6 km/h (1 Bft) SO 0.00 h 125 W/m 0.0 C 1.9 C
17.01.2006 13:00 1.9 C 88 % 1012.9 hPa 0.3 l/m 1.4 km/h (1 Bft) SO 0.00 h 86 W/m 0.2 C 1.6 C
17.01.2006 14:00 2.9 C 88 % 1011.5 hPa 0.3 l/m 3.0 km/h (1 Bft) SO 0.00 h 68 W/m 1.0 C 2.2 C
17.01.2006 15:00 4.0 C 84 % 1010.7 hPa 0.0 l/m 7.1 km/h (2 Bft) SO 0.00 h 35 W/m 1.5 C 2.3 C
17.01.2006 16:00 4.4 C 81 % 1009.8 hPa 0.0 l/m 10.9 km/h (2 Bft) SW 0.00 h 9 W/m 1.4 C 2.0 C
17.01.2006 17:00 4.2 C 83 % 1009.1 hPa 1.0 l/m 11.3 km/h (2 Bft) W 0.00 h 0 W/m 1.5 C 1.9 C
17.01.2006 18:00 4.2 C 87 % 1008.6 hPa 2.9 l/m 15.2 km/h (3 Bft) W 0.00 h 0 W/m 2.2 C 1.0 C
17.01.2006 19:00 4.1 C 88 % 1008.6 hPa 2.6 l/m 12.7 km/h (3 Bft) W 0.00 h 0 W/m 2.3 C 1.5 C
17.01.2006 20:00 3.9 C 90 % 1008.7 hPa 2.0 l/m 8.9 km/h (2 Bft) SO 0.00 h 0 W/m 2.5 C 1.8 C
17.01.2006 21:00 3.7 C 90 % 1008.7 hPa 1.0 l/m 8.0 km/h (2 Bft) SO 0.00 h 0 W/m 2.1 C 1.8 C
17.01.2006 22:00 3.4 C 92 % 1008.7 hPa 1.0 l/m 9.4 km/h (2 Bft) SO 0.00 h 0 W/m 2.1 C 1.0 C
17.01.2006 23:00 3.4 C 92 % 1008.7 hPa 0.6 l/m 7.7 km/h (2 Bft) S-SO 0.00 h 0 W/m 2.2 C 1.6 C
18.01.2006 00:00 3.4 C 92 % 1008.7 hPa 1.3 l/m 6.2 km/h (2 Bft) S-SO 0.00 h 0 W/m 2.2 C 2.0 C
18.01.2006 01:00 3.5 C 93 % 1008.7 hPa 2.0 l/m 2.5 km/h (1 Bft) SO 0.00 h 0 W/m 2.5 C 3.0 C
18.01.2006 02:00 3.6 C 95 % 1008.8 hPa 1.3 l/m 2.5 km/h (1 Bft) S-SO 0.00 h 0 W/m 2.8 C 3.2 C
18.01.2006 03:00 3.7 C 96 % 1009.6 hPa 0.6 l/m 3.3 km/h (1 Bft) W 0.00 h 0 W/m 3.1 C 3.2 C
18.01.2006 04:00 3.6 C 96 % 1009.7 hPa 0.6 l/m 4.7 km/h (1 Bft) W 0.00 h 0 W/m 3.0 C 2.5 C
18.01.2006 05:00 4.0 C 97 % 1009.8 hPa 0.0 l/m 6.5 km/h (2 Bft) W 0.00 h 0 W/m 3.5 C 2.6 C
18.01.2006 06:00 4.5 C 97 % 1010.7 hPa 0.0 l/m 13.8 km/h (3 Bft) W 0.00 h 0 W/m 4.1 C 1.4 C
18.01.2006 07:00 4.6 C 94 % 1011.4 hPa 0.0 l/m 27.6 km/h (4 Bft) W-NW 0.00 h 0 W/m 3.8 C -0.2 C
18.01.2006 08:00 4.7 C 86 % 1012.6 hPa 0.0 l/m 22.7 km/h (4 Bft) W-NW 0.00 h 3 W/m 2.6 C 0.4 C
18.01.2006 09:00 4.8 C 82 % 1013.2 hPa 0.0 l/m 20.5 km/h (4 Bft) W-NW 0.00 h 27 W/m 2.0 C 0.9 C
18.01.2006 10:00 4.6 C 83 % 1013.8 hPa 0.0 l/m 19.4 km/h (3 Bft) W-NW 0.00 h 55 W/m 2.0 C 0.8 C
18.01.2006 11:00 4.8 C 83 % 1013.7 hPa 0.3 l/m 20.1 km/h (4 Bft) W-NW 0.00 h 89 W/m 2.2 C 0.9 C
18.01.2006 12:00 5.1 C 80 % 1013.7 hPa 0.0 l/m 21.5 km/h (4 Bft) W-NW 0.00 h 77 W/m 1.9 C 1.0 C
18.01.2006 13:00 4.9 C 81 % 1013.7 hPa 0.0 l/m 21.3 km/h (4 Bft) W-NW 0.00 h 50 W/m 1.9 C 0.7 C
18.01.2006 14:00 4.5 C 83 % 1013.8 hPa 0.0 l/m 16.3 km/h (3 Bft) W-NW 0.00 h 35 W/m 1.9 C 1.1 C
18.01.2006 15:00 4.3 C 85 % 1014.5 hPa 0.0 l/m 18.5 km/h (3 Bft) W-NW 0.00 h 22 W/m 1.9 C 0.5 C
18.01.2006 16:00 3.8 C 87 % 1015.3 hPa 0.0 l/m 1.6 km/h (1 Bft) W-NW 0.00 h 7 W/m 1.8 C 3.6 C
18.01.2006 17:00 3.7 C 90 % 1016.1 hPa 0.0 l/m 0.7 km/h (0 Bft) NO 0.00 h 3 W/m 2.2 C 3.6 C
18.01.2006 18:00 3.6 C 91 % 1017.0 hPa 0.0 l/m 0.6 km/h (0 Bft) SW 0.00 h 0 W/m 2.3 C 3.5 C
18.01.2006 19:00 3.7 C 93 % 1017.4 hPa 0.0 l/m 2.2 km/h (1 Bft) SO 0.00 h 0 W/m 2.6 C 3.2 C
18.01.2006 20:00 3.5 C 92 % 1018.1 hPa 0.3 l/m 4.0 km/h (1 Bft) SO 0.00 h 0 W/m 2.3 C 2.5 C
18.01.2006 21:00 3.1 C 93 % 1018.3 hPa 0.0 l/m 1.1 km/h (1 Bft) SO 0.00 h 0 W/m 2.0 C 2.9 C
18.01.2006 22:00 2.9 C 93 % 1019.2 hPa 0.0 l/m 2.5 km/h (1 Bft) O-SO 0.00 h 0 W/m 1.9 C 2.2 C
18.01.2006 23:00 2.5 C 95 % 1020.1 hPa 0.0 l/m 6.3 km/h (2 Bft) O-SO 0.00 h 0 W/m 1.7 C 0.8 C
19.01.2006 00:00 2.0 C 95 % 1020.8 hPa 0.0 l/m 1.3 km/h (1 Bft) O-SO 0.00 h 0 W/m 1.3 C 1.7 C
19.01.2006 01:00 1.8 C 96 % 1021.4 hPa 0.0 l/m 0.0 km/h (0 Bft) N 0.00 h 0 W/m 1.2 C 1.8 C
19.01.2006 02:00 1.8 C 97 % 1022.2 hPa 0.0 l/m 0.2 km/h (0 Bft) O-SO 0.00 h 0 W/m 1.4 C 1.8 C
19.01.2006 03:00 1.8 C 98 % 1023.1 hPa 0.0 l/m 0.0 km/h (0 Bft) N 0.00 h 0 W/m 1.5 C 1.8 C
19.01.2006 04:00 1.9 C 98 % 1023.5 hPa 0.0 l/m 0.0 km/h (0 Bft) N 0.00 h 0 W/m 1.6 C 1.9 C
19.01.2006 05:00 1.8 C 99 % 1023.5 hPa 0.0 l/m 0.0 km/h (0 Bft) N 0.00 h 0 W/m 1.7 C 1.8 C
19.01.2006 06:00 1.7 C 99 % 1024.3 hPa 0.0 l/m 0.2 km/h (0 Bft) O-SO 0.00 h 0 W/m 1.6 C 1.7 C
19.01.2006 07:00 1.7 C 100 % 1024.6 hPa 0.0 l/m 0.0 km/h (0 Bft) N 0.00 h 0 W/m 1.7 C 1.7 C
19.01.2006 08:00 1.8 C 100 % 1025.1 hPa 0.0 l/m 0.0 km/h (0 Bft) N 0.00 h 9 W/m 1.8 C 1.8 C
19.01.2006 09:00 2.1 C 100 % 1025.6 hPa 0.0 l/m 0.0 km/h (0 Bft) N 0.00 h 41 W/m 2.1 C 2.1 C
19.01.2006 10:00 2.9 C 98 % 1025.5 hPa 0.0 l/m 0.5 km/h (0 Bft) O 0.00 h 106 W/m 2.5 C 2.9 C
19.01.2006 11:00 3.7 C 87 % 1025.3 hPa 0.0 l/m 0.6 km/h (0 Bft) O 0.50 h 242 W/m 1.7 C 3.7 C
19.01.2006 12:00 4.2 C 77 % 1025.3 hPa 0.0 l/m 0.5 km/h (0 Bft) O 0.00 h 117 W/m 0.6 C 4.2 C
19.01.2006 13:00 4.3 C 74 % 1025.2 hPa 0.0 l/m 2.1 km/h (1 Bft) SO 0.00 h 126 W/m 0.1 C 3.9 C
19.01.2006 14:00 4.3 C 73 % 1025.2 hPa 0.0 l/m 1.0 km/h (0 Bft) W 0.00 h 89 W/m -0.1 C 4.2 C
19.01.2006 15:00 4.1 C 74 % 1025.9 hPa 0.0 l/m 0.2 km/h (0 Bft) W 0.00 h 44 W/m -0.2 C 4.1 C
19.01.2006 16:00 3.7 C 74 % 1026.4 hPa 0.0 l/m 0.1 km/h (0 Bft) N 0.00 h 19 W/m -0.6 C 3.7 C
19.01.2006 17:00 3.1 C 77 % 1026.5 hPa 0.0 l/m 0.1 km/h (0 Bft) N 0.00 h 4 W/m -0.6 C 3.1 C
19.01.2006 18:00 2.5 C 80 % 1027.1 hPa 0.0 l/m 0.3 km/h (0 Bft) SO 0.00 h 0 W/m -0.7 C 2.5 C
19.01.2006 19:00 2.2 C 80 % 1027.6 hPa 0.0 l/m 2.4 km/h (1 Bft) SO 0.00 h 0 W/m -0.8 C 1.8 C
19.01.2006 20:00 2.3 C 80 % 1027.6 hPa 0.0 l/m 2.2 km/h (1 Bft) O-SO 0.00 h 0 W/m -0.9 C 1.8 C
19.01.2006 21:00 2.0 C 80 % 1027.7 hPa 0.0 l/m 2.8 km/h (1 Bft) O 0.00 h 0 W/m -1.1 C 1.3 C
19.01.2006 22:00 1.7 C 82 % 1027.7 hPa 0.0 l/m 4.4 km/h (1 Bft) O-SO 0.00 h 0 W/m -1.1 C 0.6 C
19.01.2006 23:00 1.5 C 81 % 1027.7 hPa 0.0 l/m 0.0 km/h (0 Bft) N 0.00 h 0 W/m -1.3 C 1.5 C
20.01.2006 00:00 1.6 C 83 % 1027.7 hPa 0.0 l/m 0.0 km/h (0 Bft) N 0.00 h 0 W/m -1.0 C 1.6 C
20.01.2006 01:00 1.4 C 83 % 1027.0 hPa 0.0 l/m 0.0 km/h (0 Bft) N 0.00 h 0 W/m -1.1 C 1.4 C
20.01.2006 02:00 1.2 C 84 % 1027.3 hPa 0.0 l/m 0.0 km/h (0 Bft) N 0.00 h 0 W/m -1.1 C 1.2 C
20.01.2006 03:00 1.2 C 85 % 1026.8 hPa 0.0 l/m 0.5 km/h (0 Bft) O 0.00 h 0 W/m -1.1 C 1.1 C
20.01.2006 04:00 1.2 C 86 % 1026.7 hPa 0.0 l/m 0.1 km/h (0 Bft) W-SW 0.00 h 0 W/m -0.8 C 1.2 C
20.01.2006 05:00 0.8 C 88 % 1026.8 hPa 0.0 l/m 1.5 km/h (1 Bft) W 0.00 h 0 W/m -0.9 C 0.5 C
20.01.2006 06:00 0.7 C 89 % 1026.8 hPa 0.0 l/m 3.1 km/h (1 Bft) SO 0.00 h 0 W/m -0.9 C 0.0 C
20.01.2006 07:00 0.8 C 88 % 1026.8 hPa 0.0 l/m 1.5 km/h (1 Bft) SO 0.00 h 0 W/m -1.0 C 0.5 C
20.01.2006 08:00 0.7 C 88 % 1026.9 hPa 0.0 l/m 2.0 km/h (1 Bft) SO 0.00 h 6 W/m -1.1 C 0.3 C
20.01.2006 09:00 1.0 C 86 % 1026.9 hPa 0.0 l/m 2.5 km/h (1 Bft) SO 0.00 h 25 W/m -1.0 C 0.4 C
20.01.2006 10:00 1.5 C 83 % 1026.7 hPa 0.0 l/m 1.4 km/h (1 Bft) O-SO 0.00 h 51 W/m -1.0 C 1.4 C
20.01.2006 11:00 2.1 C 82 % 1026.4 hPa 0.0 l/m 2.8 km/h (1 Bft) SW 0.00 h 83 W/m -0.7 C 1.5 C
20.01.2006 12:00 2.3 C 79 % 1025.5 hPa 0.0 l/m 1.3 km/h (1 Bft) W 0.00 h 121 W/m -1.0 C 2.2 C
20.01.2006 13:00 3.8 C 74 % 1024.8 hPa 0.0 l/m 5.8 km/h (2 Bft) SO 0.57 h 281 W/m -0.5 C 2.4 C
20.01.2006 14:00 4.5 C 70 % 1024.2 hPa 0.0 l/m 14.6 km/h (3 Bft) SO 0.93 h 304 W/m -0.5 C 1.4 C
20.01.2006 15:00 3.8 C 72 % 1023.5 hPa 0.0 l/m 12.9 km/h (3 Bft) SO 0.63 h 168 W/m -0.9 C 0.8 C
20.01.2006 16:00 2.6 C 78 % 1023.4 hPa 0.0 l/m 12.0 km/h (2 Bft) SO 0.00 h 35 W/m -0.9 C -0.3 C
20.01.2006 17:00 2.5 C 80 % 1023.4 hPa 0.0 l/m 5.5 km/h (1 Bft) SO 0.00 h 5 W/m -0.6 C 1.1 C
20.01.2006 18:00 2.7 C 81 % 1023.4 hPa 0.0 l/m 5.4 km/h (1 Bft) SO 0.00 h 0 W/m -0.2 C 1.4 C
20.01.2006 19:00 2.9 C 82 % 1023.4 hPa 0.0 l/m 9.4 km/h (2 Bft) S 0.00 h 0 W/m 0.1 C 0.4 C
20.01.2006 20:00 2.9 C 82 % 1024.0 hPa 0.0 l/m 9.0 km/h (2 Bft) SO 0.00 h 0 W/m 0.1 C 0.5 C
20.01.2006 21:00 2.6 C 83 % 1024.4 hPa 0.0 l/m 12.4 km/h (3 Bft) SO 0.00 h 0 W/m 0.1 C -0.5 C
20.01.2006 22:00 2.6 C 83 % 1024.5 hPa 0.0 l/m 12.7 km/h (3 Bft) SO 0.00 h 0 W/m -0.1 C -0.8 C
20.01.2006 23:00 2.9 C 81 % 1024.4 hPa 0.0 l/m 9.1 km/h (2 Bft) SO 0.00 h 0 W/m 0.0 C 0.6 C
21.01.2006 00:00 3.1 C 84 % 1024.4 hPa 0.3 l/m 3.7 km/h (1 Bft) SO 0.00 h 0 W/m 0.6 C 2.3 C
21.01.2006 01:00 3.3 C 89 % 1024.3 hPa 0.0 l/m 2.3 km/h (1 Bft) SO 0.00 h 0 W/m 1.6 C 2.9 C
21.01.2006 02:00 3.5 C 91 % 1024.3 hPa 0.3 l/m 0.7 km/h (0 Bft) SO 0.00 h 0 W/m 2.2 C 3.4 C
21.01.2006 03:00 4.8 C 94 % 1024.1 hPa 0.3 l/m 12.8 km/h (3 Bft) W-NW 0.00 h 0 W/m 3.9 C 2.1 C
21.01.2006 04:00 4.5 C 94 % 1024.2 hPa 0.0 l/m 9.6 km/h (2 Bft) W-NW 0.00 h 0 W/m 3.7 C 2.5 C
21.01.2006 05:00 3.6 C 91 % 1025.3 hPa 0.0 l/m 14.1 km/h (3 Bft) W-NW 0.00 h 0 W/m 2.3 C 0.3 C
21.01.2006 06:00 2.2 C 91 % 1024.6 hPa 0.0 l/m 8.7 km/h (2 Bft) W-NW 0.00 h 0 W/m 0.9 C -0.0 C
21.01.2006 07:00 1.8 C 93 % 1025.6 hPa 0.0 l/m 8.7 km/h (2 Bft) W-NW 0.00 h 0 W/m 0.8 C -0.4 C
21.01.2006 08:00 2.1 C 91 % 1025.8 hPa 0.0 l/m 1.6 km/h (1 Bft) NW 0.07 h 24 W/m 0.8 C 1.8 C
21.01.2006 09:00 3.0 C 79 % 1026.1 hPa 0.0 l/m 10.7 km/h (2 Bft) W-NW 0.60 h 170 W/m -0.3 C 0.4 C
21.01.2006 10:00 3.6 C 73 % 1026.1 hPa 0.0 l/m 5.2 km/h (1 Bft) W 0.47 h 224 W/m -0.8 C 2.5 C
21.01.2006 11:00 4.5 C 69 % 1025.5 hPa 0.0 l/m 9.4 km/h (2 Bft) W-NW 0.30 h 215 W/m -0.8 C 2.5 C
21.01.2006 12:00 5.3 C 62 % 1025.1 hPa 0.0 l/m 14.1 km/h (3 Bft) W-NW 0.23 h 195 W/m -1.3 C 2.6 C
21.01.2006 13:00 6.5 C 54 % 1024.9 hPa 0.0 l/m 19.7 km/h (3 Bft) W-NW 0.70 h 356 W/m -2.1 C 3.0 C
21.01.2006 14:00 6.3 C 54 % 1025.0 hPa 0.0 l/m 24.7 km/h (4 Bft) W-NW 0.30 h 186 W/m -2.4 C 2.3 C
21.01.2006 15:00 6.3 C 53 % 1025.0 hPa 0.0 l/m 19.1 km/h (3 Bft) W-NW 0.60 h 162 W/m -2.6 C 2.9 C
21.01.2006 16:00 5.6 C 55 % 1025.1 hPa 0.0 l/m 14.8 km/h (3 Bft) W-NW 0.17 h 39 W/m -2.8 C 2.7 C
21.01.2006 17:00 4.9 C 58 % 1025.1 hPa 0.0 l/m 17.4 km/h (3 Bft) W-NW 0.00 h 4 W/m -2.6 C 1.4 C
21.01.2006 18:00 4.6 C 62 % 1025.8 hPa 0.0 l/m 11.1 km/h (2 Bft) W-NW 0.00 h 0 W/m -2.1 C 2.1 C
21.01.2006 19:00 4.3 C 65 % 1026.1 hPa 0.0 l/m 6.7 km/h (2 Bft) W-NW 0.00 h 0 W/m -1.6 C 2.8 C
21.01.2006 20:00 4.0 C 69 % 1026.3 hPa 0.0 l/m 8.0 km/h (2 Bft) W-NW 0.00 h 0 W/m -1.2 C 2.3 C
21.01.2006 21:00 3.6 C 72 % 1026.4 hPa 0.0 l/m 5.5 km/h (1 Bft) W-NW 0.00 h 0 W/m -1.1 C 2.4 C
21.01.2006 22:00 3.1 C 76 % 1027.5 hPa 0.0 l/m 4.1 km/h (1 Bft) W-NW 0.00 h 0 W/m -0.7 C 2.2 C
21.01.2006 23:00 2.8 C 77 % 1027.5 hPa 0.0 l/m 0.6 km/h (0 Bft) W 0.00 h 0 W/m -0.8 C 2.6 C
22.01.2006 00:00 2.4 C 82 % 1027.6 hPa 0.0 l/m 1.0 km/h (0 Bft) W 0.00 h 0 W/m -0.3 C 2.2 C
22.01.2006 01:00 2.1 C 83 % 1027.6 hPa 0.0 l/m 2.8 km/h (1 Bft) W-NW 0.00 h 0 W/m -0.5 C 1.5 C
22.01.2006 02:00 1.9 C 85 % 1028.0 hPa 0.0 l/m 0.0 km/h (0 Bft) N 0.00 h 0 W/m -0.4 C 1.9 C
22.01.2006 03:00 1.0 C 87 % 1028.8 hPa 0.0 l/m 0.8 km/h (0 Bft) NW 0.00 h 0 W/m -1.0 C 0.9 C
22.01.2006 04:00 1.0 C 88 % 1028.8 hPa 0.0 l/m 3.8 km/h (1 Bft) O-SO 0.00 h 0 W/m -0.7 C -0.1 C
22.01.2006 05:00 0.9 C 89 % 1029.5 hPa 0.0 l/m 0.0 km/h (0 Bft) N 0.00 h 0 W/m -0.8 C 0.9 C
22.01.2006 06:00 0.9 C 90 % 1030.4 hPa 0.0 l/m 0.0 km/h (0 Bft) N 0.00 h 0 W/m -0.6 C 0.9 C
22.01.2006 07:00 0.1 C 91 % 1030.5 hPa 0.0 l/m 1.0 km/h (0 Bft) O-SO 0.00 h 0 W/m -1.2 C -0.2 C
22.01.2006 08:00 0.4 C 93 % 1031.2 hPa 0.0 l/m 0.8 km/h (0 Bft) NO 0.00 h 16 W/m -0.6 C 0.3 C
22.01.2006 09:00 1.3 C 92 % 1032.0 hPa 0.0 l/m 0.6 km/h (0 Bft) NO 0.00 h 39 W/m 0.1 C 1.1 C
22.01.2006 10:00 1.7 C 87 % 1032.9 hPa 0.0 l/m 0.4 km/h (0 Bft) N 0.00 h 85 W/m -0.1 C 1.7 C
22.01.2006 11:00 2.4 C 83 % 1032.8 hPa 0.0 l/m 2.2 km/h (1 Bft) N 0.00 h 172 W/m -0.3 C 1.9 C
22.01.2006 12:00 4.1 C 65 % 1032.5 hPa 0.0 l/m 0.3 km/h (0 Bft) N-NO 0.00 h 184 W/m -1.8 C 4.1 C
22.01.2006 13:00 4.8 C 59 % 1032.3 hPa 0.0 l/m 1.8 km/h (1 Bft) O 0.00 h 168 W/m -2.5 C 4.5 C
22.01.2006 14:00 4.7 C 57 % 1031.6 hPa 0.0 l/m 1.7 km/h (1 Bft) O 0.00 h 100 W/m -3.1 C 4.6 C
22.01.2006 15:00 4.7 C 56 % 1031.8 hPa 0.0 l/m 0.3 km/h (0 Bft) O 0.00 h 67 W/m -3.3 C 4.7 C
22.01.2006 16:00 4.1 C 58 % 1032.5 hPa 0.0 l/m 0.2 km/h (0 Bft) N 0.00 h 18 W/m -3.4 C 4.1 C
22.01.2006 17:00 3.4 C 59 % 1032.7 hPa 0.0 l/m 2.8 km/h (1 Bft) N-NO 0.00 h 4 W/m -3.9 C 2.8 C
22.01.2006 18:00 2.9 C 58 % 1033.3 hPa 0.0 l/m 2.5 km/h (1 Bft) NO 0.00 h 0 W/m -4.4 C 2.5 C
22.01.2006 19:00 2.6 C 60 % 1032.8 hPa 0.0 l/m 1.3 km/h (1 Bft) N-NO 0.00 h 0 W/m -4.3 C 2.4 C
22.01.2006 20:00 2.3 C 62 % 1033.9 hPa 0.0 l/m 1.3 km/h (1 Bft) NO 0.00 h 0 W/m -4.2 C 2.0 C
22.01.2006 21:00 1.8 C 65 % 1033.9 hPa 0.0 l/m 0.1 km/h (0 Bft) N 0.00 h 0 W/m -4.1 C 1.8 C
22.01.2006 22:00 1.5 C 67 % 1034.0 hPa 0.0 l/m 0.6 km/h (0 Bft) N-NO 0.00 h 0 W/m -4.0 C 1.5 C
22.01.2006 23:00 1.2 C 66 % 1034.0 hPa 0.0 l/m 0.4 km/h (0 Bft) N-NO 0.00 h 0 W/m -4.4 C 1.2 C
Min-Datum _ 16.01.06 21.01.06 17.01.06 - 16.01.06 - - - 16.01.06 16.01.06
_ Min-Zeit 07:50 15:46 17:38 - 00:26 - - - 10:22 02:32
Minimum _ -8.1 C 51 % 1008.6 hPa - 0.0 km/h (0 Bft) - - - -11.8 C -14.1 C
Max-Datum _ 21.01.06 19.01.06 22.01.06 17.01.06 18.01.06 - 16.01.06 21.01.06 21.01.06 21.01.06
_ Max-Zeit 13:32 06:38 23:56 18:02 07:38 - 12:20 13:26 03:40 16:22
Maximum _ 7.5 C 100 % 1034.0 hPa 2.9 l/m 43.5 km/h
W-NW (6 Bft)
- 0.03 h 553 W/m 4.4 C 5.7 C
Durchschnitt _ 1.4 C 81 % 1023.0 hPa #26.3 l/m 4.6 km/h (1 Bft) W-NW #8:38 h 95 W/m -1.6 C 0.4 C
© Kaiko 2006